sensor_id;sensor_type;location;lat;lon;timestamp;pressure;altitude;pressure_sealevel;temperature;humidity
55271;BME280;41132;47.162;9.470;2023-05-10T00:00:50;96004.09;;;14.46;100.00
55271;BME280;41132;47.162;9.470;2023-05-10T00:03:16;96020.38;;;14.49;100.00
55271;BME280;41132;47.162;9.470;2023-05-10T00:05:41;96007.66;;;14.31;100.00
55271;BME280;41132;47.162;9.470;2023-05-10T00:08:07;96036.34;;;14.41;100.00
55271;BME280;41132;47.162;9.470;2023-05-10T00:10:32;96035.78;;;14.46;100.00
55271;BME280;41132;47.162;9.470;2023-05-10T00:12:58;96011.66;;;14.27;100.00
55271;BME280;41132;47.162;9.470;2023-05-10T00:15:23;96041.81;;;14.39;100.00
55271;BME280;41132;47.162;9.470;2023-05-10T00:17:48;96009.22;;;14.26;100.00
55271;BME280;41132;47.162;9.470;2023-05-10T00:20:14;96005.19;;;14.30;100.00
55271;BME280;41132;47.162;9.470;2023-05-10T00:22:40;96016.19;;;14.33;100.00
55271;BME280;41132;47.162;9.470;2023-05-10T00:25:06;96019.19;;;14.30;100.00
55271;BME280;41132;47.162;9.470;2023-05-10T00:27:31;96018.84;;;14.33;100.00
55271;BME280;41132;47.162;9.470;2023-05-10T00:29:57;96021.09;;;14.36;100.00
55271;BME280;41132;47.162;9.470;2023-05-10T00:32:22;96020.06;;;14.37;100.00
55271;BME280;41132;47.162;9.470;2023-05-10T00:34:47;96020.41;;;14.28;100.00
55271;BME280;41132;47.162;9.470;2023-05-10T00:37:13;96006.84;;;14.37;100.00
55271;BME280;41132;47.162;9.470;2023-05-10T00:39:38;96013.44;;;14.48;100.00
55271;BME280;41132;47.162;9.470;2023-05-10T00:42:04;96005.75;;;14.47;100.00
55271;BME280;41132;47.162;9.470;2023-05-10T00:44:29;96015.63;;;14.38;100.00
55271;BME280;41132;47.162;9.470;2023-05-10T00:46:56;96038.34;;;14.39;100.00
55271;BME280;41132;47.162;9.470;2023-05-10T00:49:21;96065.66;;;14.25;100.00
55271;BME280;41132;47.162;9.470;2023-05-10T00:51:47;96047.88;;;14.12;100.00
55271;BME280;41132;47.162;9.470;2023-05-10T00:54:14;96028.75;;;14.31;100.00
55271;BME280;41132;47.162;9.470;2023-05-10T00:56:40;96034.09;;;14.16;100.00
55271;BME280;41132;47.162;9.470;2023-05-10T00:59:07;96036.00;;;14.23;100.00
55271;BME280;41132;47.162;9.470;2023-05-10T01:01:33;96015.91;;;14.22;100.00
55271;BME280;41132;47.162;9.470;2023-05-10T01:03:58;96025.38;;;14.16;100.00
55271;BME280;41132;47.162;9.470;2023-05-10T01:06:24;96025.13;;;14.11;100.00
55271;BME280;41132;47.162;9.470;2023-05-10T01:08:50;96020.44;;;14.06;100.00
55271;BME280;41132;47.162;9.470;2023-05-10T01:11:15;96023.38;;;14.18;100.00
55271;BME280;41132;47.162;9.470;2023-05-10T01:13:43;96031.69;;;14.15;100.00
55271;BME280;41132;47.162;9.470;2023-05-10T01:16:11;96011.19;;;13.95;100.00
55271;BME280;41132;47.162;9.470;2023-05-10T01:18:39;96037.81;;;14.00;100.00
55271;BME280;41132;47.162;9.470;2023-05-10T01:34:36;96067.38;;;13.74;100.00
55271;BME280;41132;47.162;9.470;2023-05-10T01:37:11;96072.72;;;13.81;100.00
55271;BME280;41132;47.162;9.470;2023-05-10T01:39:45;96066.75;;;13.94;100.00
55271;BME280;41132;47.162;9.470;2023-05-10T01:42:17;96053.50;;;13.87;100.00
55271;BME280;41132;47.162;9.470;2023-05-10T01:48:05;96076.75;;;13.77;100.00
55271;BME280;41132;47.162;9.470;2023-05-10T01:50:32;96068.38;;;13.73;100.00
55271;BME280;41132;47.162;9.470;2023-05-10T01:53:00;96083.16;;;13.89;100.00
55271;BME280;41132;47.162;9.470;2023-05-10T01:55:30;96077.31;;;13.94;100.00
55271;BME280;41132;47.162;9.470;2023-05-10T01:58:04;96070.50;;;13.99;100.00
55271;BME280;41132;47.162;9.470;2023-05-10T02:00:30;96073.09;;;13.78;100.00
55271;BME280;41132;47.162;9.470;2023-05-10T02:02:57;96076.34;;;13.80;100.00
55271;BME280;41132;47.162;9.470;2023-05-10T02:05:24;96075.25;;;13.89;100.00
55271;BME280;41132;47.162;9.470;2023-05-10T02:07:51;96073.53;;;13.82;100.00
55271;BME280;41132;47.162;9.470;2023-05-10T02:10:17;96079.25;;;13.85;100.00
55271;BME280;41132;47.162;9.470;2023-05-10T02:12:46;96080.44;;;13.83;100.00
55271;BME280;41132;47.162;9.470;2023-05-10T02:15:15;96083.63;;;13.78;100.00
55271;BME280;41132;47.162;9.470;2023-05-10T02:17:42;96088.19;;;13.84;100.00
55271;BME280;41132;47.162;9.470;2023-05-10T02:20:09;96088.09;;;13.77;100.00
55271;BME280;41132;47.162;9.470;2023-05-10T02:22:36;96096.19;;;13.76;100.00
55271;BME280;41132;47.162;9.470;2023-05-10T02:25:02;96088.66;;;13.73;100.00
55271;BME280;41132;47.162;9.470;2023-05-10T02:27:29;96082.59;;;13.57;100.00
55271;BME280;41132;47.162;9.470;2023-05-10T02:29:56;96063.69;;;13.54;100.00
55271;BME280;41132;47.162;9.470;2023-05-10T02:32:25;96082.75;;;13.71;100.00
55271;BME280;41132;47.162;9.470;2023-05-10T02:34:52;96060.84;;;13.55;100.00
55271;BME280;41132;47.162;9.470;2023-05-10T02:37:21;96086.09;;;13.65;100.00
55271;BME280;41132;47.162;9.470;2023-05-10T02:39:52;96094.16;;;13.56;100.00
55271;BME280;41132;47.162;9.470;2023-05-10T02:42:21;96105.22;;;13.67;100.00
55271;BME280;41132;47.162;9.470;2023-05-10T02:44:50;96102.56;;;13.67;100.00
55271;BME280;41132;47.162;9.470;2023-05-10T02:47:17;96076.59;;;13.49;100.00
55271;BME280;41132;47.162;9.470;2023-05-10T02:49:43;96088.97;;;13.48;100.00
55271;BME280;41132;47.162;9.470;2023-05-10T02:52:08;96094.41;;;13.62;100.00
55271;BME280;41132;47.162;9.470;2023-05-10T02:54:42;96099.25;;;13.58;100.00
55271;BME280;41132;47.162;9.470;2023-05-10T02:57:12;96113.88;;;13.61;100.00
55271;BME280;41132;47.162;9.470;2023-05-10T02:59:40;96101.31;;;13.63;100.00
55271;BME280;41132;47.162;9.470;2023-05-10T03:02:06;96086.06;;;13.43;100.00
55271;BME280;41132;47.162;9.470;2023-05-10T03:04:31;96102.91;;;13.42;100.00
55271;BME280;41132;47.162;9.470;2023-05-10T03:06:56;96103.59;;;13.51;100.00
55271;BME280;41132;47.162;9.470;2023-05-10T03:09:22;96106.13;;;13.44;100.00
55271;BME280;41132;47.162;9.470;2023-05-10T03:12:00;96104.56;;;13.65;100.00
55271;BME280;41132;47.162;9.470;2023-05-10T03:17:35;96104.34;;;13.45;100.00
55271;BME280;41132;47.162;9.470;2023-05-10T03:20:46;96101.88;;;13.43;100.00
55271;BME280;41132;47.162;9.470;2023-05-10T03:23:26;96101.16;;;13.49;100.00
55271;BME280;41132;47.162;9.470;2023-05-10T03:25:52;96098.97;;;13.38;100.00
55271;BME280;41132;47.162;9.470;2023-05-10T03:28:18;96104.59;;;13.35;100.00
55271;BME280;41132;47.162;9.470;2023-05-10T03:30:46;96109.59;;;13.30;100.00
55271;BME280;41132;47.162;9.470;2023-05-10T03:33:11;96112.81;;;13.40;100.00
55271;BME280;41132;47.162;9.470;2023-05-10T03:35:38;96117.22;;;13.40;100.00
55271;BME280;41132;47.162;9.470;2023-05-10T03:38:04;96121.25;;;13.35;100.00
55271;BME280;41132;47.162;9.470;2023-05-10T03:40:29;96125.28;;;13.23;100.00
55271;BME280;41132;47.162;9.470;2023-05-10T03:42:57;96115.66;;;13.15;100.00
55271;BME280;41132;47.162;9.470;2023-05-10T03:45:22;96130.69;;;13.30;100.00
55271;BME280;41132;47.162;9.470;2023-05-10T03:47:47;96131.81;;;13.12;100.00
55271;BME280;41132;47.162;9.470;2023-05-10T03:50:13;96135.03;;;13.23;100.00
55271;BME280;41132;47.162;9.470;2023-05-10T03:52:38;96145.53;;;13.31;100.00
55271;BME280;41132;47.162;9.470;2023-05-10T03:55:07;96138.59;;;13.30;100.00
55271;BME280;41132;47.162;9.470;2023-05-10T03:57:33;96148.31;;;13.29;100.00
55271;BME280;41132;47.162;9.470;2023-05-10T03:59:58;96140.75;;;13.26;100.00
55271;BME280;41132;47.162;9.470;2023-05-10T04:02:23;96136.59;;;13.32;100.00
55271;BME280;41132;47.162;9.470;2023-05-10T04:04:49;96145.56;;;13.23;100.00
55271;BME280;41132;47.162;9.470;2023-05-10T04:07:14;96135.03;;;13.23;100.00
55271;BME280;41132;47.162;9.470;2023-05-10T04:09:40;96155.06;;;13.32;100.00
55271;BME280;41132;47.162;9.470;2023-05-10T04:12:05;96152.00;;;13.20;100.00
55271;BME280;41132;47.162;9.470;2023-05-10T04:14:31;96149.22;;;13.36;100.00
55271;BME280;41132;47.162;9.470;2023-05-10T04:16:56;96152.41;;;13.32;100.00
55271;BME280;41132;47.162;9.470;2023-05-10T04:19:22;96149.59;;;13.33;100.00
55271;BME280;41132;47.162;9.470;2023-05-10T04:21:47;96137.41;;;13.32;100.00
55271;BME280;41132;47.162;9.470;2023-05-10T04:24:13;96135.41;;;13.34;100.00
55271;BME280;41132;47.162;9.470;2023-05-10T04:26:38;96151.22;;;13.34;100.00
55271;BME280;41132;47.162;9.470;2023-05-10T04:29:03;96145.03;;;13.27;100.00
55271;BME280;41132;47.162;9.470;2023-05-10T04:31:29;96138.84;;;13.20;100.00
55271;BME280;41132;47.162;9.470;2023-05-10T04:33:54;96145.47;;;13.16;100.00
55271;BME280;41132;47.162;9.470;2023-05-10T04:36:19;96138.94;;;13.27;100.00
55271;BME280;41132;47.162;9.470;2023-05-10T04:38:45;96133.41;;;13.36;100.00
55271;BME280;41132;47.162;9.470;2023-05-10T04:41:10;96149.59;;;13.33;100.00
55271;BME280;41132;47.162;9.470;2023-05-10T04:43:37;96155.69;;;13.34;100.00
55271;BME280;41132;47.162;9.470;2023-05-10T04:46:03;96154.97;;;13.40;100.00
55271;BME280;41132;47.162;9.470;2023-05-10T04:48:29;96147.31;;;13.30;100.00
55271;BME280;41132;47.162;9.470;2023-05-10T04:50:54;96168.41;;;13.30;100.00
55271;BME280;41132;47.162;9.470;2023-05-10T04:53:20;96159.50;;;13.31;100.00
55271;BME280;41132;47.162;9.470;2023-05-10T04:55:45;96157.94;;;13.22;100.00
55271;BME280;41132;47.162;9.470;2023-05-10T04:58:11;96148.56;;;13.20;100.00
55271;BME280;41132;47.162;9.470;2023-05-10T05:00:37;96151.31;;;13.26;100.00
55271;BME280;41132;47.162;9.470;2023-05-10T05:03:03;96163.53;;;13.42;100.00
55271;BME280;41132;47.162;9.470;2023-05-10T05:05:28;96132.34;;;13.31;100.00
55271;BME280;41132;47.162;9.470;2023-05-10T05:07:53;96142.25;;;13.29;100.00
55271;BME280;41132;47.162;9.470;2023-05-10T05:10:19;96171.22;;;13.44;100.00
55271;BME280;41132;47.162;9.470;2023-05-10T05:12:44;96166.88;;;13.51;100.00
55271;BME280;41132;47.162;9.470;2023-05-10T05:15:10;96162.97;;;13.32;100.00
55271;BME280;41132;47.162;9.470;2023-05-10T05:17:35;96162.97;;;13.32;100.00
55271;BME280;41132;47.162;9.470;2023-05-10T05:20:01;96173.41;;;13.55;100.00
55271;BME280;41132;47.162;9.470;2023-05-10T05:22:26;96148.88;;;13.40;100.00
55271;BME280;41132;47.162;9.470;2023-05-10T05:24:56;96164.59;;;13.48;100.00
55271;BME280;41132;47.162;9.470;2023-05-10T05:27:23;96150.03;;;13.37;100.00
55271;BME280;41132;47.162;9.470;2023-05-10T05:29:55;96159.41;;;13.54;100.00
55271;BME280;41132;47.162;9.470;2023-05-10T05:32:21;96170.59;;;13.71;100.00
55271;BME280;41132;47.162;9.470;2023-05-10T05:34:47;96158.31;;;13.64;100.00
55271;BME280;41132;47.162;9.470;2023-05-10T05:37:19;96170.88;;;13.76;100.00
55271;BME280;41132;47.162;9.470;2023-05-10T05:39:46;96170.22;;;13.60;100.00
55271;BME280;41132;47.162;9.470;2023-05-10T05:42:12;96177.16;;;13.61;100.00
55271;BME280;41132;47.162;9.470;2023-05-10T05:44:38;96177.03;;;13.69;100.00
55271;BME280;41132;47.162;9.470;2023-05-10T05:47:04;96176.78;;;13.64;100.00
55271;BME280;41132;47.162;9.470;2023-05-10T05:49:30;96154.22;;;13.46;100.00
55271;BME280;41132;47.162;9.470;2023-05-10T05:51:59;96163.03;;;13.53;100.00
55271;BME280;41132;47.162;9.470;2023-05-10T05:54:26;96182.22;;;13.62;100.00
55271;BME280;41132;47.162;9.470;2023-05-10T05:56:54;96177.31;;;13.59;100.00
55271;BME280;41132;47.162;9.470;2023-05-10T05:59:19;96180.25;;;13.49;100.00
55271;BME280;41132;47.162;9.470;2023-05-10T06:01:45;96179.59;;;13.47;100.00
55271;BME280;41132;47.162;9.470;2023-05-10T06:04:10;96196.16;;;13.56;100.00
55271;BME280;41132;47.162;9.470;2023-05-10T06:06:36;96203.22;;;13.55;100.00
55271;BME280;41132;47.162;9.470;2023-05-10T06:09:01;96206.31;;;13.44;100.00
55271;BME280;41132;47.162;9.470;2023-05-10T06:11:26;96210.97;;;13.57;100.00
55271;BME280;41132;47.162;9.470;2023-05-10T06:13:52;96200.13;;;13.37;100.00
55271;BME280;41132;47.162;9.470;2023-05-10T06:16:17;96206.03;;;13.39;100.00
55271;BME280;41132;47.162;9.470;2023-05-10T06:18:42;96223.78;;;13.45;100.00
55271;BME280;41132;47.162;9.470;2023-05-10T06:21:08;96216.84;;;13.44;100.00
55271;BME280;41132;47.162;9.470;2023-05-10T06:23:34;96237.50;;;13.41;100.00
55271;BME280;41132;47.162;9.470;2023-05-10T06:25:59;96242.03;;;13.32;100.00
55271;BME280;41132;47.162;9.470;2023-05-10T06:28:25;96240.03;;;13.34;100.00
55271;BME280;41132;47.162;9.470;2023-05-10T06:30:50;96235.97;;;13.23;100.00
55271;BME280;41132;47.162;9.470;2023-05-10T06:33:15;96234.16;;;13.24;100.00
55271;BME280;41132;47.162;9.470;2023-05-10T06:35:41;96247.16;;;13.25;100.00
55271;BME280;41132;47.162;9.470;2023-05-10T06:38:06;96255.38;;;13.30;100.00
55271;BME280;41132;47.162;9.470;2023-05-10T06:40:31;96248.34;;;13.23;100.00
55271;BME280;41132;47.162;9.470;2023-05-10T06:42:57;96243.13;;;13.14;100.00
55271;BME280;41132;47.162;9.470;2023-05-10T06:45:23;96251.50;;;13.18;100.00
55271;BME280;41132;47.162;9.470;2023-05-10T06:47:48;96250.59;;;13.26;100.00
55271;BME280;41132;47.162;9.470;2023-05-10T06:50:13;96251.94;;;13.30;100.00
55271;BME280;41132;47.162;9.470;2023-05-10T06:52:39;96238.75;;;13.30;100.00
55271;BME280;41132;47.162;9.470;2023-05-10T06:55:05;96250.97;;;13.23;100.00
55271;BME280;41132;47.162;9.470;2023-05-10T06:57:31;96238.16;;;13.20;100.00
55271;BME280;41132;47.162;9.470;2023-05-10T06:59:56;96254.09;;;13.26;100.00
55271;BME280;41132;47.162;9.470;2023-05-10T07:02:22;96250.22;;;13.14;100.00
55271;BME280;41132;47.162;9.470;2023-05-10T07:04:48;96263.09;;;13.32;100.00
55271;BME280;41132;47.162;9.470;2023-05-10T07:07:14;96258.59;;;13.41;100.00
55271;BME280;41132;47.162;9.470;2023-05-10T07:09:39;96268.50;;;13.39;100.00
55271;BME280;41132;47.162;9.470;2023-05-10T07:12:05;96267.75;;;13.30;100.00
55271;BME280;41132;47.162;9.470;2023-05-10T07:14:30;96263.34;;;12.99;100.00
55271;BME280;41132;47.162;9.470;2023-05-10T07:16:55;96266.69;;;12.93;100.00
55271;BME280;41132;47.162;9.470;2023-05-10T07:19:21;96268.75;;;13.06;100.00
55271;BME280;41132;47.162;9.470;2023-05-10T07:21:47;96272.66;;;12.87;100.00
55271;BME280;41132;47.162;9.470;2023-05-10T07:24:12;96265.63;;;12.79;100.00
55271;BME280;41132;47.162;9.470;2023-05-10T07:26:38;96268.31;;;12.71;100.00
55271;BME280;41132;47.162;9.470;2023-05-10T07:29:03;96272.50;;;12.57;100.00
55271;BME280;41132;47.162;9.470;2023-05-10T07:31:28;96279.59;;;12.57;100.00
55271;BME280;41132;47.162;9.470;2023-05-10T07:33:54;96284.75;;;12.73;100.00
55271;BME280;41132;47.162;9.470;2023-05-10T07:36:19;96279.34;;;12.43;100.00
55271;BME280;41132;47.162;9.470;2023-05-10T07:38:44;96259.84;;;12.21;100.00
55271;BME280;41132;47.162;9.470;2023-05-10T07:41:11;96264.09;;;12.30;100.00
55271;BME280;41132;47.162;9.470;2023-05-10T07:43:37;96282.41;;;12.55;100.00
55271;BME280;41132;47.162;9.470;2023-05-10T07:46:02;96279.94;;;12.53;100.00
55271;BME280;41132;47.162;9.470;2023-05-10T07:48:27;96294.19;;;12.36;100.00
55271;BME280;41132;47.162;9.470;2023-05-10T07:50:53;96285.50;;;12.27;100.00
55271;BME280;41132;47.162;9.470;2023-05-10T07:53:18;96290.03;;;12.42;100.00
55271;BME280;41132;47.162;9.470;2023-05-10T07:55:44;96278.13;;;12.23;100.00
55271;BME280;41132;47.162;9.470;2023-05-10T07:58:10;96292.38;;;12.28;100.00
55271;BME280;41132;47.162;9.470;2023-05-10T08:00:35;96285.59;;;12.03;100.00
55271;BME280;41132;47.162;9.470;2023-05-10T08:03:00;96292.00;;;12.08;100.00
55271;BME280;41132;47.162;9.470;2023-05-10T08:05:26;96282.63;;;12.06;100.00
55271;BME280;41132;47.162;9.470;2023-05-10T08:07:51;96282.44;;;12.16;100.00
55271;BME280;41132;47.162;9.470;2023-05-10T08:10:16;96295.00;;;12.37;100.00
55271;BME280;41132;47.162;9.470;2023-05-10T08:12:42;96275.31;;;12.24;100.00
55271;BME280;41132;47.162;9.470;2023-05-10T08:15:08;96294.19;;;12.28;100.00
55271;BME280;41132;47.162;9.470;2023-05-10T08:17:34;96284.25;;;12.07;100.00
55271;BME280;41132;47.162;9.470;2023-05-10T08:19:59;96304.56;;;12.29;100.00
55271;BME280;41132;47.162;9.470;2023-05-10T08:22:24;96288.53;;;12.47;100.00
55271;BME280;41132;47.162;9.470;2023-05-10T08:24:50;96299.56;;;12.43;100.00
55271;BME280;41132;47.162;9.470;2023-05-10T08:27:15;96288.66;;;12.54;100.00
55271;BME280;41132;47.162;9.470;2023-05-10T08:29:41;96300.03;;;12.46;100.00
55271;BME280;41132;47.162;9.470;2023-05-10T08:32:06;96303.44;;;12.55;100.00
55271;BME280;41132;47.162;9.470;2023-05-10T08:34:31;96301.91;;;12.38;100.00
55271;BME280;41132;47.162;9.470;2023-05-10T08:36:57;96303.31;;;12.48;100.00
55271;BME280;41132;47.162;9.470;2023-05-10T08:39:22;96297.66;;;12.28;100.00
55271;BME280;41132;47.162;9.470;2023-05-10T08:41:51;96300.38;;;12.43;100.00
55271;BME280;41132;47.162;9.470;2023-05-10T08:44:19;96311.72;;;12.44;100.00
55271;BME280;41132;47.162;9.470;2023-05-10T08:46:46;96309.28;;;12.42;100.00
55271;BME280;41132;47.162;9.470;2023-05-10T08:49:17;96315.66;;;12.48;100.00
55271;BME280;41132;47.162;9.470;2023-05-10T08:51:50;96309.44;;;12.41;100.00
55271;BME280;41132;47.162;9.470;2023-05-10T08:54:16;96313.81;;;12.57;100.00
55271;BME280;41132;47.162;9.470;2023-05-10T08:56:42;96309.28;;;12.42;100.00
55271;BME280;41132;47.162;9.470;2023-05-10T08:59:08;96312.38;;;12.46;100.00
55271;BME280;41132;47.162;9.470;2023-05-10T09:01:35;96319.53;;;12.60;100.00
55271;BME280;41132;47.162;9.470;2023-05-10T09:04:01;96313.38;;;12.45;100.00
55271;BME280;41132;47.162;9.470;2023-05-10T09:06:28;96310.38;;;12.56;100.00
55271;BME280;41132;47.162;9.470;2023-05-10T09:08:53;96315.25;;;12.67;100.00
55271;BME280;41132;47.162;9.470;2023-05-10T09:11:20;96314.00;;;12.78;100.00
55271;BME280;41132;47.162;9.470;2023-05-10T09:13:48;96328.53;;;12.74;100.00
55271;BME280;41132;47.162;9.470;2023-05-10T09:16:16;96320.22;;;12.85;100.00
55271;BME280;41132;47.162;9.470;2023-05-10T09:18:41;96306.63;;;12.73;100.00
55271;BME280;41132;47.162;9.470;2023-05-10T09:21:06;96322.16;;;12.68;100.00
55271;BME280;41132;47.162;9.470;2023-05-10T09:23:32;96312.66;;;12.59;100.00
55271;BME280;41132;47.162;9.470;2023-05-10T09:26:02;96315.56;;;12.64;100.00
55271;BME280;41132;47.162;9.470;2023-05-10T09:28:33;96320.75;;;12.81;100.00
55271;BME280;41132;47.162;9.470;2023-05-10T09:30:59;96317.44;;;12.87;100.00
55271;BME280;41132;47.162;9.470;2023-05-10T09:33:25;96324.34;;;13.11;100.00
55271;BME280;41132;47.162;9.470;2023-05-10T09:35:51;96313.81;;;12.88;100.00
55271;BME280;41132;47.162;9.470;2023-05-10T09:38:17;96317.38;;;12.95;100.00
55271;BME280;41132;47.162;9.470;2023-05-10T09:40:51;96330.81;;;13.08;100.00
55271;BME280;41132;47.162;9.470;2023-05-10T09:43:20;96324.69;;;13.08;100.00
55271;BME280;41132;47.162;9.470;2023-05-10T09:45:47;96334.38;;;13.15;100.00
55271;BME280;41132;47.162;9.470;2023-05-10T09:48:13;96333.03;;;13.20;100.00
55271;BME280;41132;47.162;9.470;2023-05-10T09:50:39;96337.56;;;13.26;100.00
55271;BME280;41132;47.162;9.470;2023-05-10T09:53:05;96326.31;;;13.40;100.00
55271;BME280;41132;47.162;9.470;2023-05-10T09:55:43;96324.94;;;13.44;100.00
55271;BME280;41132;47.162;9.470;2023-05-10T09:58:12;96319.25;;;13.09;100.00
55271;BME280;41132;47.162;9.470;2023-05-10T10:00:41;96333.75;;;13.36;100.00
55271;BME280;41132;47.162;9.470;2023-05-10T10:03:13;96345.31;;;13.50;100.00
55271;BME280;41132;47.162;9.470;2023-05-10T10:05:40;96337.78;;;13.24;100.00
55271;BME280;41132;47.162;9.470;2023-05-10T10:08:06;96339.09;;;13.20;100.00
55271;BME280;41132;47.162;9.470;2023-05-10T10:10:33;96314.69;;;13.26;100.00
55271;BME280;41132;47.162;9.470;2023-05-10T10:12:59;96328.69;;;13.27;100.00
55271;BME280;41132;47.162;9.470;2023-05-10T10:15:25;96339.81;;;13.37;100.00
55271;BME280;41132;47.162;9.470;2023-05-10T10:17:51;96340.59;;;13.46;100.00
55271;BME280;41132;47.162;9.470;2023-05-10T10:20:19;96336.44;;;13.51;100.00
55271;BME280;41132;47.162;9.470;2023-05-10T10:22:45;96332.31;;;13.49;100.00
55271;BME280;41132;47.162;9.470;2023-05-10T10:25:14;96316.09;;;13.37;100.00
55271;BME280;41132;47.162;9.470;2023-05-10T10:35:35;96327.25;;;13.62;100.00
55271;BME280;41132;47.162;9.470;2023-05-10T10:38:02;96331.28;;;13.73;100.00
55271;BME280;41132;47.162;9.470;2023-05-10T10:40:32;96330.38;;;13.81;100.00
55271;BME280;41132;47.162;9.470;2023-05-10T10:42:58;96342.09;;;13.78;100.00
55271;BME280;41132;47.162;9.470;2023-05-10T10:45:24;96339.13;;;13.81;100.00
55271;BME280;41132;47.162;9.470;2023-05-10T10:48:19;96345.19;;;13.67;100.00
55271;BME280;41132;47.162;9.470;2023-05-10T10:50:45;96333.91;;;13.58;100.00
55271;BME280;41132;47.162;9.470;2023-05-10T10:53:11;96336.13;;;13.84;100.00
55271;BME280;41132;47.162;9.470;2023-05-10T10:55:46;96330.84;;;13.84;100.00
55271;BME280;41132;47.162;9.470;2023-05-10T10:58:28;96327.41;;;13.98;100.00
55271;BME280;41132;47.162;9.470;2023-05-10T11:01:10;96331.16;;;14.04;100.00
55271;BME280;41132;47.162;9.470;2023-05-10T11:03:36;96339.34;;;13.94;100.00
55271;BME280;41132;47.162;9.470;2023-05-10T11:06:01;96322.88;;;13.92;100.00
55271;BME280;41132;47.162;9.470;2023-05-10T11:08:32;96335.84;;;13.94;100.00
55271;BME280;41132;47.162;9.470;2023-05-10T11:11:04;96338.59;;;14.00;100.00
55271;BME280;41132;47.162;9.470;2023-05-10T11:13:41;96342.88;;;14.02;100.00
55271;BME280;41132;47.162;9.470;2023-05-10T11:19:03;96342.03;;;13.86;100.00
55271;BME280;41132;47.162;9.470;2023-05-10T11:21:30;96339.34;;;13.94;100.00
55271;BME280;41132;47.162;9.470;2023-05-10T11:23:56;96342.31;;;13.91;100.00
55271;BME280;41132;47.162;9.470;2023-05-10T11:26:23;96331.94;;;13.75;100.00
55271;BME280;41132;47.162;9.470;2023-05-10T11:28:53;96347.75;;;13.75;100.00
55271;BME280;41132;47.162;9.470;2023-05-10T11:31:20;96344.47;;;13.73;100.00
55271;BME280;41132;47.162;9.470;2023-05-10T11:33:51;96336.50;;;13.81;100.00
55271;BME280;41132;47.162;9.470;2023-05-10T11:36:28;96333.56;;;13.76;100.00
55271;BME280;41132;47.162;9.470;2023-05-10T11:38:54;96333.66;;;13.83;100.00
55271;BME280;41132;47.162;9.470;2023-05-10T11:41:21;96322.66;;;13.79;100.00
55271;BME280;41132;47.162;9.470;2023-05-10T11:43:48;96325.47;;;13.77;100.00
55271;BME280;41132;47.162;9.470;2023-05-10T11:46:15;96335.03;;;13.78;100.00
55271;BME280;41132;47.162;9.470;2023-05-10T11:48:42;96328.81;;;13.71;100.00
55271;BME280;41132;47.162;9.470;2023-05-10T11:51:09;96346.19;;;13.81;100.00
55271;BME280;41132;47.162;9.470;2023-05-10T11:53:35;96331.94;;;13.75;100.00
55271;BME280;41132;47.162;9.470;2023-05-10T11:56:08;96335.03;;;13.78;100.00
55271;BME280;41132;47.162;9.470;2023-05-10T11:58:34;96346.41;;;13.94;100.00
55271;BME280;41132;47.162;9.470;2023-05-10T12:01:00;96342.69;;;13.88;100.00
55271;BME280;41132;47.162;9.470;2023-05-10T12:03:29;96344.84;;;13.85;100.00
55271;BME280;41132;47.162;9.470;2023-05-10T12:05:55;96346.69;;;13.84;100.00
55271;BME280;41132;47.162;9.470;2023-05-10T12:08:24;96341.94;;;13.79;100.00
55271;BME280;41132;47.162;9.470;2023-05-10T12:10:49;96356.03;;;13.87;100.00
55271;BME280;41132;47.162;9.470;2023-05-10T12:13:15;96345.59;;;13.78;100.00
55271;BME280;41132;47.162;9.470;2023-05-10T12:15:41;96343.03;;;13.85;100.00
55271;BME280;41132;47.162;9.470;2023-05-10T12:18:12;96350.56;;;13.73;100.00
55271;BME280;41132;47.162;9.470;2023-05-10T12:20:39;96344.84;;;13.85;100.00
55271;BME280;41132;47.162;9.470;2023-05-10T12:23:05;96349.16;;;13.86;100.00
55271;BME280;41132;47.162;9.470;2023-05-10T12:25:38;96340.22;;;13.87;100.00
55271;BME280;41132;47.162;9.470;2023-05-10T12:28:06;96357.13;;;13.77;100.00
55271;BME280;41132;47.162;9.470;2023-05-10T12:30:33;96347.75;;;13.75;100.00
55271;BME280;41132;47.162;9.470;2023-05-10T12:33:10;96352.31;;;13.81;100.00
55271;BME280;41132;47.162;9.470;2023-05-10T12:35:50;96355.34;;;13.93;100.00
55271;BME280;41132;47.162;9.470;2023-05-10T12:38:33;96353.56;;;13.70;100.00
55271;BME280;41132;47.162;9.470;2023-05-10T12:41:00;96361.03;;;13.82;100.00
55271;BME280;41132;47.162;9.470;2023-05-10T12:43:26;96359.16;;;13.90;100.00
55271;BME280;41132;47.162;9.470;2023-05-10T12:45:52;96349.38;;;13.76;100.00
55271;BME280;41132;47.162;9.470;2023-05-10T12:48:18;96361.59;;;13.77;100.00
55271;BME280;41132;47.162;9.470;2023-05-10T12:50:43;96357.50;;;13.74;100.00
55271;BME280;41132;47.162;9.470;2023-05-10T12:53:09;96351.75;;;13.71;100.00
55271;BME280;41132;47.162;9.470;2023-05-10T12:55:34;96363.31;;;13.85;100.00
55271;BME280;41132;47.162;9.470;2023-05-10T12:57:59;96365.78;;;13.86;100.00
55271;BME280;41132;47.162;9.470;2023-05-10T13:00:25;96371.53;;;13.90;100.00
55271;BME280;41132;47.162;9.470;2023-05-10T13:02:50;96365.94;;;13.85;100.00
55271;BME280;41132;47.162;9.470;2023-05-10T13:05:16;96351.91;;;13.69;100.00
55271;BME280;41132;47.162;9.470;2023-05-10T13:07:41;96366.69;;;13.78;100.00
55271;BME280;41132;47.162;9.470;2023-05-10T13:10:09;96360.50;;;13.86;100.00
55271;BME280;41132;47.162;9.470;2023-05-10T13:12:34;96365.88;;;13.93;100.00
55271;BME280;41132;47.162;9.470;2023-05-10T13:15:00;96340.22;;;13.72;100.00
55271;BME280;41132;47.162;9.470;2023-05-10T13:17:25;96369.50;;;13.77;100.00
55271;BME280;41132;47.162;9.470;2023-05-10T13:19:51;96362.28;;;13.71;100.00